createdAt,value
2019-01-12T00:00:23.342Z,0
2019-01-12T00:01:23.312Z,0
2019-01-12T00:02:23.300Z,0
2019-01-12T00:03:23.277Z,0
2019-01-12T00:04:23.016Z,0
2019-01-12T00:05:23.255Z,0
2019-01-12T00:06:23.224Z,0
2019-01-12T00:07:22.965Z,0
2019-01-12T00:08:23.188Z,0
2019-01-12T00:09:23.166Z,0
2019-01-12T00:10:23.152Z,0
2019-01-12T00:11:23.135Z,0
2019-01-12T00:12:22.863Z,0
2019-01-12T00:13:23.089Z,0
2019-01-12T00:14:22.860Z,0
2019-01-12T00:15:23.182Z,0
2019-01-12T00:16:23.929Z,0
2019-01-12T00:17:23.021Z,0
2019-01-12T00:18:22.756Z,0
2019-01-12T00:19:22.987Z,0
2019-01-12T00:20:22.708Z,0
2019-01-12T00:21:22.941Z,0
2019-01-12T00:22:22.914Z,0
2019-01-12T00:23:22.909Z,0
2019-01-12T00:24:22.880Z,0
2019-01-12T00:25:22.622Z,0
2019-01-12T00:26:22.846Z,0
2019-01-12T00:27:22.825Z,0
2019-01-12T00:28:22.800Z,0
2019-01-12T00:29:22.534Z,0
2019-01-12T00:30:22.524Z,0
2019-01-12T00:31:22.750Z,0
2019-01-12T00:32:22.728Z,0
2019-01-12T00:33:22.716Z,0
2019-01-12T00:34:22.442Z,0
2019-01-12T00:35:22.674Z,0
2019-01-12T00:36:22.657Z,0
2019-01-12T00:37:22.644Z,0
2019-01-12T00:38:22.619Z,0
2019-01-12T00:39:22.345Z,0
2019-01-12T00:40:22.580Z,0
2019-01-12T00:41:23.341Z,0
2019-01-12T00:42:22.538Z,0
2019-01-12T00:43:22.519Z,0
2019-01-12T00:44:22.512Z,0
2019-01-12T00:45:22.537Z,0
2019-01-12T00:46:22.469Z,0
2019-01-12T00:47:22.446Z,0
2019-01-12T00:48:22.429Z,0
2019-01-12T00:49:22.156Z,0
2019-01-12T00:50:22.143Z,0
2019-01-12T00:51:22.368Z,0
2019-01-12T00:52:22.352Z,0
2019-01-12T00:53:22.081Z,0
2019-01-12T00:54:22.319Z,0
2019-01-12T00:55:22.055Z,0
2019-01-12T00:56:22.282Z,0
2019-01-12T00:57:22.264Z,0
2019-01-12T00:58:21.987Z,0
2019-01-12T00:59:29.523Z,0
2019-01-12T01:00:22.196Z,0
2019-01-12T01:01:22.176Z,0
2019-01-12T01:02:22.154Z,0
2019-01-12T01:03:21.895Z,0
2019-01-12T01:04:22.122Z,0
2019-01-12T01:05:22.117Z,0
2019-01-12T01:06:22.088Z,0
2019-01-12T01:07:22.068Z,0
2019-01-12T01:08:22.045Z,0
2019-01-12T01:09:22.029Z,0
2019-01-12T01:10:22.017Z,0
2019-01-12T01:11:21.986Z,0
2019-01-12T01:12:21.969Z,0
2019-01-12T01:13:21.958Z,0
2019-01-12T01:14:21.941Z,0
2019-01-12T01:15:21.666Z,0
2019-01-12T01:16:21.897Z,0
2019-01-12T01:17:21.920Z,0
2019-01-12T01:18:21.864Z,0
2019-01-12T01:19:21.857Z,0
2019-01-12T01:20:21.824Z,0
2019-01-12T01:21:21.798Z,0
2019-01-12T01:22:21.535Z,0
2019-01-12T01:23:21.765Z,0
2019-01-12T01:24:21.744Z,0
2019-01-12T01:25:21.767Z,0
2019-01-12T01:26:21.711Z,0
2019-01-12T01:27:21.696Z,0
2019-01-12T01:28:21.672Z,0
2019-01-12T01:29:21.402Z,0
2019-01-12T01:30:21.630Z,0
2019-01-12T01:31:21.362Z,0
2019-01-12T01:32:21.349Z,0
2019-01-12T01:33:27.860Z,0
2019-01-12T01:34:21.555Z,0
2019-01-12T01:35:21.299Z,0
2019-01-12T01:36:21.519Z,0
2019-01-12T01:37:21.561Z,0
2019-01-12T01:38:21.241Z,0
2019-01-12T01:39:21.214Z,0
2019-01-12T01:40:21.201Z,0
2019-01-12T01:41:21.429Z,0
2019-01-12T01:42:21.161Z,0
2019-01-12T01:43:21.399Z,0
2019-01-12T01:44:20.624Z,0
2019-01-12T01:45:21.106Z,0
2019-01-12T01:46:21.340Z,0
2019-01-12T01:47:21.314Z,0
2019-01-12T01:48:21.291Z,0
2019-01-12T01:49:21.027Z,0
2019-01-12T01:50:21.010Z,0
2019-01-12T01:51:21.241Z,0
2019-01-12T01:52:21.221Z,0
2019-01-12T01:53:21.204Z,0
2019-01-12T01:54:20.940Z,0
2019-01-12T01:55:21.167Z,0
2019-01-12T01:56:21.156Z,0
2019-01-12T01:57:20.879Z,0
2019-01-12T01:58:20.865Z,0
2019-01-12T01:59:21.101Z,0
2019-01-12T02:00:21.075Z,0
2019-01-12T02:01:21.053Z,0
2019-01-12T02:02:21.041Z,0
2019-01-12T02:03:21.018Z,0
2019-01-12T02:04:20.749Z,0
2019-01-12T02:05:20.980Z,0
2019-01-12T02:06:20.721Z,0
2019-01-12T02:07:20.693Z,0
2019-01-12T02:08:20.936Z,0
2019-01-12T02:09:20.912Z,0
2019-01-12T02:10:20.884Z,0
2019-01-12T02:11:20.871Z,0
2019-01-12T02:12:20.846Z,0
2019-01-12T02:13:20.582Z,0
2019-01-12T02:14:20.563Z,0
2019-01-12T02:15:20.794Z,0
2019-01-12T02:16:20.528Z,0
2019-01-12T02:17:20.757Z,0
2019-01-12T02:18:20.733Z,0
2019-01-12T02:19:20.716Z,0
2019-01-12T02:20:20.451Z,0
2019-01-12T02:21:20.683Z,0
2019-01-12T02:22:20.415Z,0
2019-01-12T02:23:20.147Z,0
2019-01-12T02:24:20.628Z,0
2019-01-12T02:25:20.606Z,0
2019-01-12T02:26:20.590Z,0
2019-01-12T02:27:20.569Z,0
2019-01-12T02:28:20.306Z,0
2019-01-12T02:29:20.291Z,0
2019-01-12T02:30:20.537Z,0
2019-01-12T02:31:20.534Z,0
2019-01-12T02:32:20.485Z,0
2019-01-12T02:33:20.218Z,0
2019-01-12T02:34:20.192Z,0
2019-01-12T02:35:20.494Z,0
2019-01-12T02:36:20.168Z,0
2019-01-12T02:37:20.142Z,0
2019-01-12T02:38:20.369Z,0
2019-01-12T02:39:20.359Z,0
2019-01-12T02:40:20.347Z,0
2019-01-12T02:41:20.337Z,0
2019-01-12T02:42:20.330Z,0
2019-01-12T02:43:20.335Z,0
2019-01-12T02:44:20.404Z,0
2019-01-12T02:45:20.305Z,0
2019-01-12T02:46:21.771Z,0
2019-01-12T02:47:20.222Z,0
2019-01-12T02:48:20.181Z,0
2019-01-12T02:49:20.161Z,0
2019-01-12T02:50:20.171Z,0
2019-01-12T02:51:19.882Z,0
2019-01-12T02:52:20.131Z,0
2019-01-12T02:53:20.091Z,0
2019-01-12T02:54:20.066Z,0
2019-01-12T02:55:20.095Z,0
2019-01-12T02:56:19.790Z,0
2019-01-12T02:57:19.772Z,0
2019-01-12T02:58:20.898Z,0
2019-01-12T02:59:19.976Z,0
2019-01-12T03:00:19.970Z,0
2019-01-12T03:01:19.687Z,0
2019-01-12T03:02:19.935Z,0
2019-01-12T03:03:19.923Z,0
2019-01-12T03:04:19.643Z,0
2019-01-12T03:05:19.903Z,0
2019-01-12T03:06:19.849Z,0
2019-01-12T03:07:19.847Z,0
2019-01-12T03:08:19.586Z,0
2019-01-12T03:09:19.605Z,0
2019-01-12T03:10:19.528Z,0
2019-01-12T03:11:19.767Z,0
2019-01-12T03:12:19.742Z,0
2019-01-12T03:13:19.734Z,0
2019-01-12T03:14:19.726Z,0
2019-01-12T03:15:19.467Z,0
2019-01-12T03:16:19.674Z,0
2019-01-12T03:17:19.404Z,0
2019-01-12T03:18:19.632Z,0
2019-01-12T03:19:19.637Z,0
2019-01-12T03:20:19.612Z,0
2019-01-12T03:21:19.582Z,0
2019-01-12T03:22:19.547Z,0
2019-01-12T03:23:19.307Z,0
2019-01-12T03:24:19.513Z,0
2019-01-12T03:25:27.365Z,0
2019-01-12T03:26:19.491Z,0
2019-01-12T03:27:19.458Z,0
2019-01-12T03:28:19.449Z,0
2019-01-12T03:29:19.188Z,0
2019-01-12T03:30:19.485Z,0
2019-01-12T03:31:19.423Z,0
2019-01-12T03:32:19.136Z,0
2019-01-12T03:33:19.390Z,0
2019-01-12T03:34:19.088Z,0
2019-01-12T03:35:19.432Z,0
2019-01-12T03:36:19.304Z,0
2019-01-12T03:37:19.273Z,0
2019-01-12T03:38:19.260Z,0
2019-01-12T03:39:18.993Z,0
2019-01-12T03:40:19.308Z,0
2019-01-12T03:41:19.205Z,0
2019-01-12T03:42:19.185Z,0
2019-01-12T03:43:18.942Z,0
2019-01-12T03:44:19.158Z,0
2019-01-12T03:45:18.385Z,0
2019-01-12T03:46:19.106Z,0
2019-01-12T03:47:19.086Z,0
2019-01-12T03:48:19.075Z,0
2019-01-12T03:49:18.799Z,0
2019-01-12T03:50:19.047Z,0
2019-01-12T03:51:19.012Z,0
2019-01-12T03:52:19.059Z,0
2019-01-12T03:53:18.979Z,0
2019-01-12T03:54:18.710Z,0
2019-01-12T03:55:25.336Z,0
2019-01-12T03:56:18.673Z,0
2019-01-12T03:57:18.906Z,0
2019-01-12T03:58:18.643Z,0
2019-01-12T03:59:18.933Z,0
2019-01-12T04:00:18.600Z,0
2019-01-12T04:01:18.838Z,0
2019-01-12T04:02:18.807Z,0
2019-01-12T04:03:18.793Z,0
2019-01-12T04:04:18.774Z,0
2019-01-12T04:05:18.506Z,0
2019-01-12T04:06:18.738Z,0
2019-01-12T04:07:18.771Z,0
2019-01-12T04:08:18.706Z,0
2019-01-12T04:09:18.432Z,0
2019-01-12T04:10:18.669Z,0
2019-01-12T04:11:18.642Z,0
2019-01-12T04:12:18.380Z,0
2019-01-12T04:13:18.362Z,0
2019-01-12T04:14:18.598Z,0
2019-01-12T04:15:18.317Z,0
2019-01-12T04:16:18.549Z,0
2019-01-12T04:17:18.285Z,0
2019-01-12T04:18:18.524Z,0
2019-01-12T04:19:18.509Z,0
2019-01-12T04:20:18.479Z,0
2019-01-12T04:21:18.485Z,0
2019-01-12T04:22:18.445Z,0
2019-01-12T04:23:18.172Z,0
2019-01-12T04:24:18.405Z,0
2019-01-12T04:25:18.136Z,0
2019-01-12T04:26:18.370Z,0
2019-01-12T04:27:18.099Z,0
2019-01-12T04:28:18.338Z,0
2019-01-12T04:29:18.059Z,0
2019-01-12T04:30:18.352Z,0
2019-01-12T04:31:18.289Z,0
2019-01-12T04:32:18.248Z,0
2019-01-12T04:33:18.238Z,0
2019-01-12T04:34:17.718Z,0
2019-01-12T04:35:18.197Z,0
2019-01-12T04:36:17.942Z,0
2019-01-12T04:37:18.161Z,0
2019-01-12T04:38:17.906Z,0
2019-01-12T04:39:18.135Z,0
2019-01-12T04:40:18.262Z,0
2019-01-12T04:41:18.104Z,0
2019-01-12T04:42:18.078Z,0
2019-01-12T04:43:18.054Z,0
2019-01-12T04:44:17.827Z,0
2019-01-12T04:45:18.011Z,0
2019-01-12T04:46:18.048Z,0
2019-01-12T04:47:17.978Z,0
2019-01-12T04:48:19.585Z,0
2019-01-12T04:49:17.943Z,0
2019-01-12T04:50:17.922Z,0
2019-01-12T04:51:17.903Z,0
2019-01-12T04:52:17.891Z,0
2019-01-12T04:53:17.879Z,0
2019-01-12T04:54:17.884Z,0
2019-01-12T04:55:17.841Z,0
2019-01-12T04:56:17.825Z,0
2019-01-12T04:57:17.803Z,0
2019-01-12T04:58:17.782Z,0
2019-01-12T04:59:17.755Z,0
2019-01-12T05:00:17.812Z,0
2019-01-12T05:01:17.734Z,0
2019-01-12T05:02:17.704Z,0
2019-01-12T05:03:17.692Z,0
2019-01-12T05:04:17.669Z,0
2019-01-12T05:05:17.411Z,0
2019-01-12T05:06:17.644Z,0
2019-01-12T05:07:17.616Z,0
2019-01-12T05:08:17.111Z,0
2019-01-12T05:09:17.337Z,0
2019-01-12T05:10:17.572Z,0
2019-01-12T05:11:17.530Z,0
2019-01-12T05:12:17.510Z,0
2019-01-12T05:13:17.504Z,0
2019-01-12T05:14:17.482Z,0
2019-01-12T05:15:17.470Z,0
2019-01-12T05:16:17.466Z,0
2019-01-12T05:17:17.443Z,0
2019-01-12T05:18:17.409Z,0
2019-01-12T05:19:17.408Z,0
2019-01-12T05:20:17.377Z,0
2019-01-12T05:21:17.379Z,0
2019-01-12T05:22:17.346Z,0
2019-01-12T05:23:17.318Z,0
2019-01-12T05:24:17.294Z,0
2019-01-12T05:25:17.285Z,0
2019-01-12T05:26:17.259Z,0
2019-01-12T05:27:16.999Z,0
2019-01-12T05:28:16.722Z,0
2019-01-12T05:29:17.205Z,0
2019-01-12T05:30:17.317Z,0
2019-01-12T05:31:17.170Z,0
2019-01-12T05:32:17.147Z,0
2019-01-12T05:33:16.885Z,0
2019-01-12T05:34:16.874Z,0
2019-01-12T05:35:17.095Z,0
2019-01-12T05:36:17.079Z,0
2019-01-12T05:37:16.561Z,0
2019-01-12T05:38:17.042Z,0
2019-01-12T05:39:16.778Z,0
2019-01-12T05:40:16.746Z,0
2019-01-12T05:41:16.483Z,0
2019-01-12T05:42:16.958Z,0
2019-01-12T05:43:18.397Z,0
2019-01-12T05:44:16.945Z,0
2019-01-12T05:45:16.908Z,0
2019-01-12T05:46:16.390Z,0
2019-01-12T05:47:16.612Z,0
2019-01-12T05:48:16.598Z,0
2019-01-12T05:49:16.331Z,0
2019-01-12T05:50:16.859Z,0
2019-01-12T05:51:16.793Z,0
2019-01-12T05:52:16.788Z,0
2019-01-12T05:53:16.510Z,0
2019-01-12T05:54:16.735Z,0
2019-01-12T05:55:16.480Z,0
2019-01-12T05:56:16.486Z,0
2019-01-12T05:57:16.454Z,0
2019-01-12T05:58:16.671Z,0
2019-01-12T05:59:16.648Z,0
2019-01-12T06:00:16.625Z,0
2019-01-12T06:01:16.363Z,0
2019-01-12T06:02:16.599Z,0
2019-01-12T06:03:16.568Z,0
2019-01-12T06:04:16.555Z,0
2019-01-12T06:05:16.534Z,0
2019-01-12T06:06:16.513Z,0
2019-01-12T06:07:16.503Z,0
2019-01-12T06:08:16.483Z,0
2019-01-12T06:09:16.460Z,0
2019-01-12T06:10:17.266Z,0
2019-01-12T06:11:16.425Z,0
2019-01-12T06:12:16.413Z,0
2019-01-12T06:13:16.386Z,0
2019-01-12T06:14:16.368Z,0
2019-01-12T06:15:16.352Z,0
2019-01-12T06:16:16.337Z,0
2019-01-12T06:17:16.070Z,0
2019-01-12T06:18:16.295Z,0
2019-01-12T06:19:16.281Z,0
2019-01-12T06:20:16.273Z,0
2019-01-12T06:21:16.262Z,0
2019-01-12T06:22:16.273Z,0
2019-01-12T06:23:16.202Z,0
2019-01-12T06:24:16.185Z,0
2019-01-12T06:25:16.191Z,0
2019-01-12T06:26:16.149Z,0
2019-01-12T06:27:16.129Z,0
2019-01-12T06:28:16.118Z,0
2019-01-12T06:29:16.092Z,0
2019-01-12T06:30:16.098Z,0
2019-01-12T06:31:16.114Z,0
2019-01-12T06:32:15.843Z,0
2019-01-12T06:33:16.141Z,0
2019-01-12T06:34:15.761Z,0
2019-01-12T06:35:16.001Z,0
2019-01-12T06:36:15.960Z,0
2019-01-12T06:37:15.952Z,0
2019-01-12T06:38:15.178Z,0
2019-01-12T06:39:15.912Z,0
2019-01-12T06:40:15.154Z,0
2019-01-12T06:41:15.879Z,0
2019-01-12T06:42:15.853Z,0
2019-01-12T06:43:15.849Z,0
2019-01-12T06:44:15.571Z,0
2019-01-12T06:45:15.560Z,0
2019-01-12T06:46:15.542Z,0
2019-01-12T06:47:15.516Z,0
2019-01-12T06:48:15.500Z,0
2019-01-12T06:49:15.481Z,0
2019-01-12T06:50:15.715Z,0
2019-01-12T06:51:15.435Z,0
2019-01-12T06:52:15.678Z,0
2019-01-12T06:53:15.662Z,0
2019-01-12T06:54:15.635Z,0
2019-01-12T06:55:15.614Z,0
2019-01-12T06:56:20.392Z,0
2019-01-12T06:57:15.578Z,0
2019-01-12T06:58:15.562Z,0
2019-01-12T06:59:15.551Z,0
2019-01-12T07:00:15.284Z,0
2019-01-12T07:01:15.506Z,0
2019-01-12T07:02:15.487Z,0
2019-01-12T07:03:15.465Z,0
2019-01-12T07:04:15.452Z,0
2019-01-12T07:05:15.463Z,0
2019-01-12T07:06:15.415Z,0
2019-01-12T07:07:15.394Z,0
2019-01-12T07:08:15.144Z,0
2019-01-12T07:09:15.358Z,0
2019-01-12T07:10:15.340Z,0
2019-01-12T07:11:15.319Z,5
2019-01-12T07:12:15.308Z,5
2019-01-12T07:13:15.037Z,5
2019-01-12T07:14:15.263Z,5
2019-01-12T07:15:15.250Z,5
2019-01-12T07:16:15.003Z,5
2019-01-12T07:17:15.209Z,5
2019-01-12T07:18:18.527Z,5
2019-01-12T07:19:15.171Z,5
2019-01-12T07:20:15.199Z,5
2019-01-12T07:21:14.887Z,10
2019-01-12T07:22:14.875Z,10
2019-01-12T07:23:15.100Z,10
2019-01-12T07:24:14.849Z,10
2019-01-12T07:25:15.071Z,10
2019-01-12T07:26:19.714Z,10
2019-01-12T07:27:15.030Z,10
2019-01-12T07:28:15.004Z,10
2019-01-12T07:29:14.761Z,15
2019-01-12T07:30:14.974Z,15
2019-01-12T07:31:14.956Z,15
2019-01-12T07:32:14.937Z,15
2019-01-12T07:33:14.916Z,15
2019-01-12T07:34:14.414Z,15
2019-01-12T07:35:14.891Z,15
2019-01-12T07:36:14.862Z,15
2019-01-12T07:37:14.864Z,20
2019-01-12T07:38:14.832Z,15
2019-01-12T07:39:14.567Z,20
2019-01-12T07:40:14.555Z,20
2019-01-12T07:41:14.284Z,20
2019-01-12T07:42:14.310Z,20
2019-01-12T07:43:14.483Z,20
2019-01-12T07:44:14.720Z,20
2019-01-12T07:45:14.704Z,20
2019-01-12T07:46:14.428Z,20
2019-01-12T07:47:14.712Z,20
2019-01-12T07:48:14.148Z,20
2019-01-12T07:49:14.625Z,20
2019-01-12T07:50:14.377Z,20
2019-01-12T07:51:14.635Z,20
2019-01-12T07:52:14.341Z,20
2019-01-12T07:53:14.549Z,20
2019-01-12T07:54:14.530Z,20
2019-01-12T07:55:14.517Z,20
2019-01-12T07:56:14.248Z,25
2019-01-12T07:57:14.475Z,25
2019-01-12T07:58:14.222Z,25
2019-01-12T07:59:14.447Z,30
2019-01-12T08:00:14.421Z,30
2019-01-12T08:01:14.407Z,25
2019-01-12T08:02:14.537Z,25
2019-01-12T08:03:14.363Z,25
2019-01-12T08:04:14.346Z,30
2019-01-12T08:05:14.330Z,25
2019-01-12T08:06:14.062Z,30
2019-01-12T08:07:14.303Z,25
2019-01-12T08:08:14.027Z,25
2019-01-12T08:09:14.266Z,30
2019-01-12T08:10:14.241Z,30
2019-01-12T08:11:14.223Z,30
2019-01-12T08:12:14.207Z,30
2019-01-12T08:13:14.181Z,30
2019-01-12T08:14:14.183Z,35
2019-01-12T08:15:14.148Z,35
2019-01-12T08:16:14.134Z,40
2019-01-12T08:17:14.682Z,45
2019-01-12T08:18:13.842Z,45
2019-01-12T08:19:14.078Z,50
2019-01-12T08:20:14.068Z,50
2019-01-12T08:21:14.052Z,50
2019-01-12T08:22:13.769Z,50
2019-01-12T08:23:13.998Z,55
2019-01-12T08:24:13.986Z,65
2019-01-12T08:25:13.714Z,70
2019-01-12T08:26:13.949Z,70
2019-01-12T08:27:13.929Z,70
2019-01-12T08:28:13.909Z,65
2019-01-12T08:29:13.890Z,70
2019-01-12T08:30:13.629Z,75
2019-01-12T08:31:13.857Z,75
2019-01-12T08:32:13.591Z,80
2019-01-12T08:33:13.579Z,80
2019-01-12T08:34:13.562Z,85
2019-01-12T08:35:13.786Z,85
2019-01-12T08:36:13.772Z,85
2019-01-12T08:37:13.752Z,80
2019-01-12T08:38:13.480Z,85
2019-01-12T08:39:13.714Z,85
2019-01-12T08:40:13.693Z,85
2019-01-12T08:41:13.674Z,90
2019-01-12T08:42:13.415Z,95
2019-01-12T08:43:13.640Z,95
2019-01-12T08:44:13.373Z,95
2019-01-12T08:45:13.356Z,100
2019-01-12T08:46:13.583Z,100
2019-01-12T08:47:13.577Z,105
2019-01-12T08:48:13.545Z,110
2019-01-12T08:49:13.917Z,115
2019-01-12T08:50:13.510Z,115
2019-01-12T08:51:13.522Z,110
2019-01-12T08:52:13.232Z,115
2019-01-12T08:53:13.212Z,110
2019-01-12T08:54:13.446Z,115
2019-01-12T08:55:12.935Z,125
2019-01-12T08:56:13.416Z,120
2019-01-12T08:57:13.494Z,120
2019-01-12T08:58:13.367Z,120
2019-01-12T08:59:13.112Z,120
2019-01-12T09:00:13.092Z,120
2019-01-12T09:01:13.323Z,130
2019-01-12T09:02:13.050Z,145
2019-01-12T09:03:13.279Z,160
2019-01-12T09:04:13.269Z,180
2019-01-12T09:05:13.248Z,175
2019-01-12T09:06:12.735Z,160
2019-01-12T09:07:12.971Z,145
2019-01-12T09:08:12.699Z,145
2019-01-12T09:09:12.989Z,145
2019-01-12T09:10:12.917Z,135
2019-01-12T09:11:13.165Z,125
2019-01-12T09:12:13.129Z,140
2019-01-12T09:13:13.109Z,160
2019-01-12T09:14:13.097Z,170
2019-01-12T09:15:13.074Z,165
2019-01-12T09:16:12.819Z,170
2019-01-12T09:17:13.041Z,180
2019-01-12T09:18:12.772Z,175
2019-01-12T09:19:13.022Z,170
2019-01-12T09:20:12.985Z,170
2019-01-12T09:21:12.981Z,170
2019-01-12T09:22:12.954Z,170
2019-01-12T09:23:12.937Z,170
2019-01-12T09:24:12.912Z,175
2019-01-12T09:25:12.403Z,185
2019-01-12T09:26:12.887Z,180
2019-01-12T09:27:12.873Z,180
2019-01-12T09:28:12.850Z,175
2019-01-12T09:29:12.832Z,180
2019-01-12T09:30:12.815Z,175
2019-01-12T09:31:12.803Z,180
2019-01-12T09:32:12.788Z,180
2019-01-12T09:33:14.088Z,185
2019-01-12T09:34:12.761Z,185
2019-01-12T09:35:12.735Z,185
2019-01-12T09:36:12.719Z,185
2019-01-12T09:37:12.700Z,185
2019-01-12T09:38:12.832Z,185
2019-01-12T09:39:12.657Z,185
2019-01-12T09:40:12.396Z,185
2019-01-12T09:41:12.631Z,190
2019-01-12T09:42:12.449Z,190
2019-01-12T09:43:12.591Z,190
2019-01-12T09:44:12.328Z,190
2019-01-12T09:45:12.571Z,190
2019-01-12T09:46:12.549Z,190
2019-01-12T09:47:13.106Z,190
2019-01-12T09:48:12.258Z,190
2019-01-12T09:49:12.501Z,190
2019-01-12T09:50:12.480Z,190
2019-01-12T09:51:12.217Z,185
2019-01-12T09:52:12.199Z,190
2019-01-12T09:53:12.428Z,180
2019-01-12T09:54:12.165Z,180
2019-01-12T09:55:12.395Z,195
2019-01-12T09:56:12.124Z,195
2019-01-12T09:57:12.364Z,190
2019-01-12T09:58:12.446Z,195
2019-01-12T09:59:12.332Z,205
2019-01-12T10:00:12.310Z,205
2019-01-12T10:01:12.296Z,195
2019-01-12T10:02:12.282Z,200
2019-01-12T10:03:12.260Z,195
2019-01-12T10:04:12.240Z,195
2019-01-12T10:05:12.231Z,195
2019-01-12T10:06:12.213Z,210
2019-01-12T10:07:12.196Z,230
2019-01-12T10:08:12.183Z,225
2019-01-12T10:09:11.962Z,195
2019-01-12T10:10:11.896Z,190
2019-01-12T10:11:12.125Z,195
2019-01-12T10:12:12.112Z,220
2019-01-12T10:13:12.143Z,240
2019-01-12T10:14:12.084Z,235
2019-01-12T10:15:11.813Z,275
2019-01-12T10:16:12.040Z,290
2019-01-12T10:17:12.597Z,260
2019-01-12T10:18:12.009Z,275
2019-01-12T10:19:12.018Z,260
2019-01-12T10:20:11.733Z,225
2019-01-12T10:21:11.997Z,205
2019-01-12T10:22:11.939Z,210
2019-01-12T10:23:11.931Z,230
2019-01-12T10:24:11.907Z,245
2019-01-12T10:25:11.899Z,255
2019-01-12T10:26:11.627Z,260
2019-01-12T10:27:11.622Z,280
2019-01-12T10:28:11.596Z,275
2019-01-12T10:29:11.829Z,275
2019-01-12T10:30:11.561Z,270
2019-01-12T10:31:11.793Z,275
2019-01-12T10:32:11.777Z,265
2019-01-12T10:33:11.765Z,255
2019-01-12T10:34:11.768Z,265
2019-01-12T10:35:11.485Z,265
2019-01-12T10:36:11.717Z,265
2019-01-12T10:37:11.198Z,275
2019-01-12T10:38:11.836Z,270
2019-01-12T10:39:17.744Z,260
2019-01-12T10:40:11.659Z,260
2019-01-12T10:41:11.635Z,250
2019-01-12T10:42:11.621Z,235
2019-01-12T10:43:11.650Z,240
2019-01-12T10:44:11.584Z,240
2019-01-12T10:45:11.862Z,235
2019-01-12T10:46:11.553Z,245
2019-01-12T10:47:11.294Z,240
2019-01-12T10:48:11.522Z,235
2019-01-12T10:49:11.256Z,245
2019-01-12T10:50:11.490Z,255
2019-01-12T10:51:11.474Z,255
2019-01-12T10:52:11.462Z,245
2019-01-12T10:53:11.447Z,235
2019-01-12T10:54:11.431Z,230
2019-01-12T10:55:11.415Z,225
2019-01-12T10:56:11.396Z,225
2019-01-12T10:57:15.143Z,245
2019-01-12T10:58:11.117Z,260
2019-01-12T10:59:11.352Z,265
2019-01-12T11:00:11.338Z,280
2019-01-12T11:01:11.371Z,275
2019-01-12T11:02:11.048Z,265
2019-01-12T11:03:11.301Z,265
2019-01-12T11:04:11.267Z,260
2019-01-12T11:05:11.258Z,260
2019-01-12T11:06:11.243Z,260
2019-01-12T11:07:10.998Z,265
2019-01-12T11:08:11.263Z,255
2019-01-12T11:09:11.185Z,250
2019-01-12T11:10:13.697Z,235
2019-01-12T11:11:10.913Z,240
2019-01-12T11:12:10.890Z,230
2019-01-12T11:13:11.126Z,210
2019-01-12T11:14:11.113Z,200
2019-01-12T11:15:10.847Z,195
2019-01-12T11:16:11.132Z,190
2019-01-12T11:17:10.813Z,185
2019-01-12T11:18:11.061Z,185
2019-01-12T11:19:11.031Z,180
2019-01-12T11:20:11.029Z,170
2019-01-12T11:21:10.996Z,170
2019-01-12T11:22:10.978Z,170
2019-01-12T11:23:10.966Z,170
2019-01-12T11:24:10.754Z,180
2019-01-12T11:25:10.935Z,190
2019-01-12T11:26:10.740Z,185
2019-01-12T11:27:17.019Z,180
2019-01-12T11:28:10.647Z,190
2019-01-12T11:29:10.629Z,195
2019-01-12T11:30:10.857Z,180
2019-01-12T11:31:10.841Z,185
2019-01-12T11:32:10.575Z,185
2019-01-12T11:33:10.556Z,175
2019-01-12T11:34:10.547Z,155
2019-01-12T11:35:10.777Z,150
2019-01-12T11:36:10.771Z,150
2019-01-12T11:37:10.742Z,140
2019-01-12T11:38:10.739Z,165
2019-01-12T11:39:10.705Z,175
2019-01-12T11:40:10.440Z,170
2019-01-12T11:41:10.433Z,170
2019-01-12T11:42:10.407Z,165
2019-01-12T11:43:10.649Z,180
2019-01-12T11:44:10.624Z,180
2019-01-12T11:45:10.610Z,190
2019-01-12T11:46:10.596Z,185
2019-01-12T11:47:10.581Z,210
2019-01-12T11:48:10.318Z,205
2019-01-12T11:49:10.302Z,205
2019-01-12T11:50:10.579Z,215
2019-01-12T11:51:10.544Z,220
2019-01-12T11:52:10.522Z,220
2019-01-12T11:53:10.711Z,215
2019-01-12T11:54:10.474Z,190
2019-01-12T11:55:10.520Z,165
2019-01-12T11:56:10.439Z,160
2019-01-12T11:57:10.427Z,135
2019-01-12T11:58:10.198Z,135
2019-01-12T11:59:10.183Z,130
2019-01-12T12:00:10.122Z,130
2019-01-12T12:01:10.385Z,120
2019-01-12T12:02:10.367Z,140
2019-01-12T12:03:10.086Z,180
2019-01-12T12:04:10.370Z,195
2019-01-12T12:05:10.065Z,200
2019-01-12T12:06:10.317Z,205
2019-01-12T12:07:10.275Z,185
2019-01-12T12:08:10.261Z,195
2019-01-12T12:09:09.975Z,200
2019-01-12T12:10:10.250Z,195
2019-01-12T12:11:09.930Z,200
2019-01-12T12:12:10.184Z,195
2019-01-12T12:13:10.162Z,205
2019-01-12T12:14:10.154Z,215
2019-01-12T12:15:09.912Z,235
2019-01-12T12:16:12.556Z,240
2019-01-12T12:17:09.890Z,240
2019-01-12T12:18:10.082Z,230
2019-01-12T12:19:10.049Z,220
2019-01-12T12:20:10.059Z,210
2019-01-12T12:21:09.778Z,210
2019-01-12T12:22:09.760Z,205
2019-01-12T12:23:09.745Z,200
2019-01-12T12:24:10.011Z,210
2019-01-12T12:25:09.948Z,205
2019-01-12T12:26:09.938Z,220
2019-01-12T12:27:09.958Z,210
2019-01-12T12:28:09.409Z,195
2019-01-12T12:29:09.639Z,190
2019-01-12T12:30:09.639Z,180
2019-01-12T12:31:09.853Z,185
2019-01-12T12:32:09.835Z,165
2019-01-12T12:33:09.833Z,180
2019-01-12T12:34:09.804Z,170
2019-01-12T12:35:09.863Z,180
2019-01-12T12:36:09.530Z,195
2019-01-12T12:37:09.761Z,195
2019-01-12T12:38:09.757Z,185
2019-01-12T12:39:09.024Z,190
2019-01-12T12:40:09.475Z,185
2019-01-12T12:41:09.713Z,185
2019-01-12T12:42:09.676Z,180
2019-01-12T12:43:09.414Z,170
2019-01-12T12:44:09.399Z,155
2019-01-12T12:45:09.247Z,160
2019-01-12T12:46:09.657Z,160
2019-01-12T12:47:09.340Z,155
2019-01-12T12:48:09.584Z,150
2019-01-12T12:49:09.308Z,145
2019-01-12T12:50:09.651Z,150
2019-01-12T12:51:09.518Z,150
2019-01-12T12:52:09.505Z,150
2019-01-12T12:53:09.254Z,150
2019-01-12T12:54:09.474Z,140
2019-01-12T12:55:09.220Z,140
2019-01-12T12:56:09.435Z,140
2019-01-12T12:57:09.425Z,140
2019-01-12T12:58:09.158Z,140
2019-01-12T12:59:09.316Z,150
2019-01-12T13:00:09.388Z,160
2019-01-12T13:01:09.107Z,170
2019-01-12T13:02:09.153Z,170
2019-01-12T13:03:09.342Z,175
2019-01-12T13:04:08.802Z,160
2019-01-12T13:05:09.041Z,145
2019-01-12T13:06:09.280Z,150
2019-01-12T13:07:09.265Z,155
2019-01-12T13:08:09.262Z,140
2019-01-12T13:09:09.239Z,145
2019-01-12T13:10:08.782Z,145
2019-01-12T13:11:09.197Z,140
2019-01-12T13:12:09.175Z,150
2019-01-12T13:13:09.215Z,140
2019-01-12T13:14:09.133Z,155
2019-01-12T13:15:10.687Z,175
2019-01-12T13:16:08.861Z,185
2019-01-12T13:17:09.085Z,185
2019-01-12T13:18:08.821Z,195
2019-01-12T13:19:09.046Z,180
2019-01-12T13:20:09.135Z,185
2019-01-12T13:21:09.028Z,175
2019-01-12T13:22:08.758Z,160
2019-01-12T13:23:08.744Z,135
2019-01-12T13:24:08.968Z,125
2019-01-12T13:25:08.701Z,115
2019-01-12T13:26:08.935Z,105
2019-01-12T13:27:08.918Z,95
2019-01-12T13:28:08.652Z,95
2019-01-12T13:29:08.891Z,100
2019-01-12T13:30:08.652Z,100
2019-01-12T13:31:08.604Z,105
2019-01-12T13:32:08.832Z,110
2019-01-12T13:33:08.569Z,105
2019-01-12T13:34:08.551Z,105
2019-01-12T13:35:08.836Z,100
2019-01-12T13:36:08.773Z,105
2019-01-12T13:37:09.871Z,100
2019-01-12T13:38:08.731Z,100
2019-01-12T13:39:08.467Z,100
2019-01-12T13:40:08.742Z,100
2019-01-12T13:41:08.683Z,100
2019-01-12T13:42:08.669Z,95
2019-01-12T13:43:08.647Z,100
2019-01-12T13:44:08.649Z,95
2019-01-12T13:45:08.610Z,100
2019-01-12T13:46:08.594Z,100
2019-01-12T13:47:08.584Z,95
2019-01-12T13:48:08.311Z,95
2019-01-12T13:49:08.309Z,95
2019-01-12T13:50:08.032Z,95
2019-01-12T13:51:08.290Z,95
2019-01-12T13:52:08.249Z,95
2019-01-12T13:53:08.468Z,95
2019-01-12T13:54:07.970Z,90
2019-01-12T13:55:08.507Z,90
2019-01-12T13:56:07.925Z,90
2019-01-12T13:57:08.416Z,85
2019-01-12T13:58:07.897Z,80
2019-01-12T13:59:08.122Z,70
2019-01-12T14:00:08.153Z,70
2019-01-12T14:01:08.348Z,70
2019-01-12T14:02:08.067Z,65
2019-01-12T14:03:08.685Z,65
2019-01-12T14:04:07.780Z,65
2019-01-12T14:05:08.019Z,60
2019-01-12T14:06:07.992Z,60
2019-01-12T14:07:07.976Z,60
2019-01-12T14:08:08.209Z,60
2019-01-12T14:09:08.199Z,55
2019-01-12T14:10:08.175Z,50
2019-01-12T14:11:08.156Z,50
2019-01-12T14:12:07.896Z,50
2019-01-12T14:13:07.875Z,50
2019-01-12T14:14:07.856Z,45
2019-01-12T14:15:08.148Z,45
2019-01-12T14:16:07.832Z,45
2019-01-12T14:17:07.804Z,50
2019-01-12T14:18:07.789Z,45
2019-01-12T14:19:08.045Z,40
2019-01-12T14:20:07.755Z,40